createdAt,value
2023-02-25T00:01:14.439Z,16.64
2023-02-25T00:03:41.499Z,16.62
2023-02-25T00:06:13.359Z,16.59
2023-02-25T00:08:43.178Z,16.57
2023-02-25T00:11:10.063Z,16.55
2023-02-25T00:13:38.680Z,16.53
2023-02-25T00:16:06.739Z,16.50
2023-02-25T00:18:33.744Z,16.48
2023-02-25T00:21:00.316Z,16.47
2023-02-25T00:23:26.866Z,16.45
2023-02-25T00:26:05.753Z,16.42
2023-02-25T00:28:33.919Z,16.42
2023-02-25T00:31:05.431Z,16.40
2023-02-25T00:33:31.980Z,16.38
2023-02-25T00:35:58.470Z,16.37
2023-02-25T00:38:24.991Z,16.36
2023-02-25T00:40:51.462Z,16.34
2023-02-25T00:43:17.975Z,16.34
2023-02-25T00:45:44.485Z,16.32
2023-02-25T00:48:11.027Z,16.29
2023-02-25T00:50:39.555Z,16.27
2023-02-25T00:53:06.125Z,16.25
2023-02-25T00:55:33.366Z,16.25
2023-02-25T00:58:02.829Z,16.22
2023-02-25T01:00:30.482Z,16.20
2023-02-25T01:02:57.939Z,16.19
2023-02-25T01:05:25.396Z,16.19
2023-02-25T01:07:52.055Z,16.17
2023-02-25T01:10:19.009Z,16.16
2023-02-25T01:12:45.794Z,16.15
2023-02-25T01:15:13.147Z,16.14
2023-02-25T01:17:39.714Z,16.13
2023-02-25T01:20:11.345Z,16.11
2023-02-25T01:22:41.572Z,16.10
2023-02-25T01:25:13.098Z,16.09
2023-02-25T01:27:40.016Z,16.07
2023-02-25T01:30:08.117Z,16.05
2023-02-25T01:32:34.881Z,16.05
2023-02-25T01:35:02.192Z,16.02
2023-02-25T01:37:28.832Z,16.01
2023-02-25T01:39:55.488Z,15.99
2023-02-25T01:42:22.266Z,15.98
2023-02-25T01:45:24.391Z,15.94
2023-02-25T01:48:05.131Z,15.96
2023-02-25T01:50:37.434Z,15.94
2023-02-25T01:53:05.866Z,15.94
2023-02-25T01:55:33.079Z,15.92
2023-02-25T01:58:00.753Z,15.90
2023-02-25T02:00:30.541Z,15.89
2023-02-25T02:02:58.053Z,15.89
2023-02-25T02:05:37.567Z,15.87
2023-02-25T02:08:05.583Z,15.88
2023-02-25T02:10:32.103Z,15.87
2023-02-25T02:12:58.719Z,15.86
2023-02-25T02:15:25.266Z,15.86
2023-02-25T02:18:03.154Z,15.84
2023-02-25T02:21:02.808Z,15.83
2023-02-25T02:23:54.107Z,15.82
2023-02-25T02:26:49.721Z,15.83
2023-02-25T02:29:32.130Z,15.83
2023-02-25T02:32:15.330Z,15.83
2023-02-25T02:34:47.134Z,15.81
2023-02-25T02:37:13.598Z,15.81
2023-02-25T02:39:44.918Z,15.81
2023-02-25T02:42:16.910Z,15.79
2023-02-25T02:44:55.457Z,15.78
2023-02-25T02:47:28.224Z,15.78
2023-02-25T02:50:02.744Z,15.77
2023-02-25T02:52:33.061Z,15.77
2023-02-25T02:55:06.906Z,15.76
2023-02-25T02:57:36.802Z,15.76
2023-02-25T03:00:17.749Z,15.75
2023-02-25T03:03:38.699Z,15.75
2023-02-25T03:06:10.391Z,15.76
2023-02-25T03:09:18.577Z,15.72
2023-02-25T03:11:45.482Z,15.74
2023-02-25T03:14:13.203Z,15.73
2023-02-25T03:16:46.725Z,15.72
2023-02-25T03:19:18.512Z,15.71
2023-02-25T03:22:27.802Z,15.70
2023-02-25T03:24:58.079Z,15.71
2023-02-25T03:27:34.322Z,15.70
2023-02-25T03:30:16.764Z,15.70
2023-02-25T03:32:47.761Z,15.70
2023-02-25T03:35:17.436Z,15.69
2023-02-25T03:37:48.947Z,15.68
2023-02-25T03:40:18.203Z,15.68
2023-02-25T03:42:52.394Z,15.67
2023-02-25T03:45:21.459Z,15.68
2023-02-25T03:47:48.296Z,15.66
2023-02-25T03:50:21.717Z,15.66
2023-02-25T03:52:48.436Z,15.67
2023-02-25T03:55:17.150Z,15.66
2023-02-25T03:57:45.950Z,15.66
2023-02-25T04:00:23.089Z,15.64
2023-02-25T04:02:50.415Z,15.64
2023-02-25T04:05:19.030Z,15.64
2023-02-25T04:07:45.982Z,15.63
2023-02-25T04:10:14.968Z,15.62
2023-02-25T04:12:41.975Z,15.61
2023-02-25T04:15:09.326Z,15.60
2023-02-25T04:17:37.216Z,15.60
2023-02-25T04:20:05.124Z,15.60
2023-02-25T04:22:32.172Z,15.59
2023-02-25T04:24:58.826Z,15.60
2023-02-25T04:27:26.368Z,15.59
2023-02-25T04:29:52.878Z,15.58
2023-02-25T04:32:19.431Z,15.57
2023-02-25T04:34:46.054Z,15.59
2023-02-25T04:37:12.573Z,15.58
2023-02-25T04:39:39.081Z,15.58
2023-02-25T04:42:05.661Z,15.59
2023-02-25T04:44:32.160Z,15.58
2023-02-25T04:46:58.671Z,15.57
2023-02-25T04:49:25.228Z,15.59
2023-02-25T04:51:52.043Z,15.57
2023-02-25T04:54:19.799Z,15.57
2023-02-25T04:56:46.740Z,15.56
2023-02-25T04:59:14.041Z,15.57
2023-02-25T05:01:41.013Z,15.56
2023-02-25T05:04:07.721Z,15.55
2023-02-25T05:06:34.772Z,15.55
2023-02-25T05:09:01.340Z,15.55
2023-02-25T05:11:29.067Z,15.53
2023-02-25T05:13:55.945Z,15.52
2023-02-25T05:16:23.851Z,15.51
2023-02-25T05:18:50.737Z,15.52
2023-02-25T05:21:20.156Z,15.51
2023-02-25T05:23:48.462Z,15.51
2023-02-25T05:26:17.140Z,15.50
2023-02-25T05:28:43.877Z,15.49
2023-02-25T05:31:12.213Z,15.49
2023-02-25T05:33:40.083Z,15.49
2023-02-25T05:36:09.036Z,15.48
2023-02-25T05:38:36.794Z,15.49
2023-02-25T05:41:05.949Z,15.48
2023-02-25T05:43:32.862Z,15.47
2023-02-25T05:46:01.547Z,15.46
2023-02-25T05:48:28.013Z,15.45
2023-02-25T05:51:01.696Z,15.46
2023-02-25T05:53:28.272Z,15.46
2023-02-25T05:55:55.711Z,15.46
2023-02-25T05:58:22.994Z,15.46
2023-02-25T06:00:49.703Z,15.45
2023-02-25T06:03:16.791Z,15.46
2023-02-25T06:05:44.073Z,15.44
2023-02-25T06:08:11.712Z,15.44
2023-02-25T06:10:41.415Z,15.44
2023-02-25T06:13:09.444Z,15.44
2023-02-25T06:15:40.618Z,15.43
2023-02-25T06:18:07.756Z,15.44
2023-02-25T06:20:35.295Z,15.43
2023-02-25T06:23:02.818Z,15.42
2023-02-25T06:25:29.941Z,15.42
2023-02-25T06:27:57.612Z,15.41
2023-02-25T06:30:24.772Z,15.40
2023-02-25T06:32:51.822Z,15.41
2023-02-25T06:35:20.964Z,15.40
2023-02-25T06:37:47.582Z,15.39
2023-02-25T06:40:15.222Z,15.39
2023-02-25T06:42:42.075Z,15.39
2023-02-25T06:45:09.044Z,15.38
2023-02-25T06:47:35.556Z,15.38
2023-02-25T06:50:02.742Z,15.37
2023-02-25T06:52:29.476Z,15.37
2023-02-25T06:54:56.053Z,15.37
2023-02-25T06:57:22.656Z,15.36
2023-02-25T06:59:49.365Z,15.36
2023-02-25T07:02:16.306Z,15.36
2023-02-25T07:04:44.037Z,15.36
2023-02-25T07:07:10.917Z,15.36
2023-02-25T07:09:37.434Z,15.36
2023-02-25T07:12:04.259Z,15.37
2023-02-25T07:14:30.863Z,15.35
2023-02-25T07:16:57.402Z,15.36
2023-02-25T07:19:23.905Z,15.36
2023-02-25T07:21:50.419Z,15.36
2023-02-25T07:24:17.485Z,15.36
2023-02-25T07:26:44.027Z,15.37
2023-02-25T07:29:10.755Z,15.38
2023-02-25T07:31:37.376Z,15.38
2023-02-25T07:34:04.436Z,15.39
2023-02-25T07:36:37.487Z,15.40
2023-02-25T07:39:06.759Z,15.41
2023-02-25T07:41:33.334Z,15.42
2023-02-25T07:43:59.979Z,15.44
2023-02-25T07:46:27.267Z,15.44
2023-02-25T07:48:53.833Z,15.45
2023-02-25T07:51:22.995Z,15.46
2023-02-25T07:53:51.089Z,15.47
2023-02-25T07:56:19.394Z,15.49
2023-02-25T07:58:46.199Z,15.50
2023-02-25T08:01:26.618Z,15.52
2023-02-25T08:03:55.516Z,15.54
2023-02-25T08:06:22.351Z,15.58
2023-02-25T08:08:51.953Z,15.58
2023-02-25T08:11:20.304Z,15.60
2023-02-25T08:13:47.325Z,15.61
2023-02-25T08:16:16.865Z,15.61
2023-02-25T08:18:43.660Z,15.61
2023-02-25T08:21:11.930Z,15.61
2023-02-25T08:23:38.849Z,15.61
2023-02-25T08:26:06.417Z,15.61
2023-02-25T08:28:36.955Z,15.61
2023-02-25T08:31:04.039Z,15.61
2023-02-25T08:33:30.958Z,15.61
2023-02-25T08:36:12.782Z,15.61
2023-02-25T08:38:39.805Z,15.62
2023-02-25T08:41:07.749Z,15.62
2023-02-25T08:43:35.431Z,15.63
2023-02-25T08:46:02.211Z,15.62
2023-02-25T08:48:29.116Z,15.63
2023-02-25T08:50:55.697Z,15.63
2023-02-25T08:53:23.386Z,15.66
2023-02-25T08:55:51.339Z,15.67
2023-02-25T08:58:17.941Z,15.68
2023-02-25T09:00:44.501Z,15.70
2023-02-25T09:03:11.121Z,15.70
2023-02-25T09:05:38.080Z,15.71
2023-02-25T09:08:04.970Z,15.72
2023-02-25T09:10:48.352Z,15.71
2023-02-25T09:15:43.853Z,15.74
2023-02-25T09:18:11.678Z,15.74
2023-02-25T09:20:38.315Z,15.75
2023-02-25T09:23:04.967Z,15.75
2023-02-25T09:25:31.760Z,15.75
2023-02-25T09:27:58.305Z,15.77
2023-02-25T09:30:24.816Z,15.77
2023-02-25T09:32:51.844Z,15.77
2023-02-25T09:35:18.509Z,15.76
2023-02-25T09:37:44.990Z,15.79
2023-02-25T09:40:17.933Z,15.83
2023-02-25T09:43:07.618Z,15.87
2023-02-25T09:45:36.295Z,15.91
2023-02-25T09:48:19.776Z,15.90
2023-02-25T09:50:53.644Z,15.90
2023-02-25T09:53:39.347Z,15.89
2023-02-25T09:56:08.182Z,15.88
2023-02-25T09:58:44.609Z,15.87
2023-02-25T10:01:11.081Z,15.88
2023-02-25T10:04:05.636Z,15.87
2023-02-25T10:07:01.492Z,15.85
2023-02-25T10:10:01.882Z,15.87
2023-02-25T10:12:40.472Z,15.87
2023-02-25T10:15:53.342Z,15.87
2023-02-25T10:18:38.147Z,15.90
2023-02-25T10:21:17.379Z,15.91
2023-02-25T10:24:13.962Z,15.94
2023-02-25T10:26:46.572Z,15.97
2023-02-25T10:29:28.444Z,16.02
2023-02-25T10:32:00.004Z,16.09
2023-02-25T10:34:31.097Z,16.16
2023-02-25T10:37:00.209Z,16.26
2023-02-25T10:39:28.620Z,16.35
2023-02-25T10:41:55.328Z,16.43
2023-02-25T10:44:22.014Z,16.50
2023-02-25T10:47:00.568Z,16.56
2023-02-25T10:49:30.122Z,16.63
2023-02-25T10:52:03.379Z,16.68
2023-02-25T10:54:47.736Z,16.72
2023-02-25T10:57:16.801Z,16.77
2023-02-25T10:59:45.234Z,16.81
2023-02-25T11:02:31.469Z,16.83
2023-02-25T11:04:58.355Z,16.86
2023-02-25T11:07:33.101Z,16.86
2023-02-25T11:10:19.515Z,16.85
2023-02-25T11:12:48.312Z,16.85
2023-02-25T11:15:44.865Z,16.83
2023-02-25T11:18:29.322Z,16.83
2023-02-25T11:21:07.234Z,16.83
2023-02-25T11:23:35.825Z,16.84
2023-02-25T11:26:03.138Z,16.84
2023-02-25T11:28:34.455Z,16.84
2023-02-25T11:31:10.283Z,16.84
2023-02-25T11:33:40.515Z,16.85
2023-02-25T11:36:07.919Z,16.85
2023-02-25T11:38:40.069Z,16.86
2023-02-25T11:41:17.684Z,16.86
2023-02-25T11:43:44.515Z,16.88
2023-02-25T11:46:32.692Z,16.89
2023-02-25T11:49:20.641Z,16.91
2023-02-25T11:52:35.914Z,16.90
2023-02-25T11:55:22.412Z,16.94
2023-02-25T11:57:48.857Z,16.96
2023-02-25T12:01:06.473Z,16.95
2023-02-25T12:04:04.084Z,16.96
2023-02-25T12:06:52.598Z,16.99
2023-02-25T12:09:34.000Z,17.01
2023-02-25T12:12:20.207Z,17.01
2023-02-25T12:14:58.711Z,17.02
2023-02-25T12:18:00.897Z,17.03
2023-02-25T12:20:50.142Z,17.03
2023-02-25T12:23:43.659Z,17.05
2023-02-25T12:26:20.690Z,17.07
2023-02-25T12:28:50.970Z,17.08
2023-02-25T12:31:47.260Z,17.09
2023-02-25T12:34:32.072Z,17.09
2023-02-25T12:37:48.179Z,17.09
2023-02-25T12:40:27.412Z,17.11
2023-02-25T12:43:09.271Z,17.11
2023-02-25T12:45:38.822Z,17.13
2023-02-25T12:48:35.130Z,17.12
2023-02-25T12:51:14.779Z,17.14
2023-02-25T12:53:57.717Z,17.15
2023-02-25T12:56:36.580Z,17.14
2023-02-25T12:59:30.725Z,17.17
2023-02-25T13:02:35.344Z,17.18
2023-02-25T13:05:20.596Z,17.19
2023-02-25T13:08:11.542Z,17.20
2023-02-25T13:10:41.273Z,17.20
2023-02-25T13:13:19.997Z,17.19
2023-02-25T13:16:15.292Z,17.21
2023-02-25T13:19:00.263Z,17.23
2023-02-25T13:21:44.291Z,17.24
2023-02-25T13:24:34.048Z,17.24
2023-02-25T13:27:27.699Z,17.26
2023-02-25T13:30:12.128Z,17.27
2023-02-25T13:32:56.656Z,17.27
2023-02-25T13:35:42.578Z,17.27
2023-02-25T13:38:36.936Z,17.28
2023-02-25T13:41:11.292Z,17.27
2023-02-25T13:43:56.638Z,17.28
2023-02-25T13:46:42.680Z,17.28
2023-02-25T13:49:49.963Z,17.25
2023-02-25T13:52:44.181Z,17.25
2023-02-25T13:55:24.032Z,17.28
2023-02-25T13:58:23.680Z,17.29
2023-02-25T14:01:27.175Z,17.32
2023-02-25T14:04:12.259Z,17.35
2023-02-25T14:07:13.310Z,17.36
2023-02-25T14:10:12.497Z,17.38
2023-02-25T14:13:11.834Z,17.39
2023-02-25T14:15:56.624Z,17.41
2023-02-25T14:18:44.814Z,17.41
2023-02-25T14:21:56.819Z,17.43
2023-02-25T14:24:42.193Z,17.44
2023-02-25T14:27:31.258Z,17.42
2023-02-25T14:30:18.684Z,17.42
2023-02-25T14:32:57.460Z,17.42
2023-02-25T14:35:59.235Z,17.40
2023-02-25T14:39:04.302Z,17.40
2023-02-25T14:41:54.064Z,17.41
2023-02-25T14:44:35.515Z,17.40
2023-02-25T14:47:16.410Z,17.38
2023-02-25T14:49:54.802Z,17.39
2023-02-25T14:52:41.523Z,17.38
2023-02-25T14:55:08.040Z,17.37
2023-02-25T14:57:44.117Z,17.37
2023-02-25T15:00:24.718Z,17.35
2023-02-25T15:03:09.516Z,17.33
2023-02-25T15:06:07.142Z,17.33
2023-02-25T15:08:58.546Z,17.34
2023-02-25T15:11:37.550Z,17.32
2023-02-25T15:14:25.767Z,17.31
2023-02-25T15:17:20.328Z,17.26
2023-02-25T15:20:22.336Z,17.24
2023-02-25T15:23:07.405Z,17.21
2023-02-25T15:25:38.824Z,17.21
2023-02-25T15:28:31.292Z,17.19
2023-02-25T15:31:01.049Z,17.19
2023-02-25T15:33:33.955Z,17.17
2023-02-25T15:36:19.560Z,17.18
2023-02-25T15:38:47.331Z,17.18
2023-02-25T15:41:29.383Z,17.19
2023-02-25T15:44:00.313Z,17.26
2023-02-25T15:46:35.986Z,17.37
2023-02-25T15:49:27.693Z,17.48
2023-02-25T15:51:59.764Z,17.63
2023-02-25T15:54:32.036Z,17.79
2023-02-25T15:57:01.230Z,17.96
2023-02-25T15:59:44.160Z,18.12
2023-02-25T16:02:34.703Z,18.27
2023-02-25T16:05:09.975Z,18.41
2023-02-25T16:07:40.186Z,18.54
2023-02-25T16:10:23.897Z,18.68
2023-02-25T16:12:53.914Z,18.80
2023-02-25T16:15:38.376Z,18.85
2023-02-25T16:18:22.031Z,18.89
2023-02-25T16:20:52.875Z,18.93
2023-02-25T16:23:19.830Z,18.94
2023-02-25T16:25:46.305Z,18.94
2023-02-25T16:28:40.580Z,18.89
2023-02-25T16:31:16.117Z,18.88
2023-02-25T16:33:53.571Z,18.86
2023-02-25T16:36:44.197Z,18.80
2023-02-25T16:39:26.308Z,18.72
2023-02-25T16:41:53.014Z,18.67
2023-02-25T16:44:32.947Z,18.59
2023-02-25T16:46:59.481Z,18.55
2023-02-25T16:49:36.841Z,18.48
2023-02-25T16:52:04.571Z,18.44
2023-02-25T16:54:38.093Z,18.39
2023-02-25T16:57:09.657Z,18.35
2023-02-25T16:59:38.494Z,18.32
2023-02-25T17:02:17.161Z,18.25
2023-02-25T17:04:49.230Z,18.23
2023-02-25T17:07:25.189Z,18.19
2023-02-25T17:09:56.180Z,18.17
2023-02-25T17:12:43.644Z,18.13
2023-02-25T17:15:29.103Z,18.09
2023-02-25T17:18:05.882Z,18.09
2023-02-25T17:20:32.946Z,18.08
2023-02-25T17:23:05.491Z,18.06
2023-02-25T17:25:38.838Z,18.05
2023-02-25T17:28:07.633Z,18.03
2023-02-25T17:30:37.156Z,18.01
2023-02-25T17:33:04.918Z,17.99
2023-02-25T17:35:32.840Z,17.98
2023-02-25T17:37:59.602Z,17.97
2023-02-25T17:40:28.573Z,17.94
2023-02-25T17:43:44.171Z,17.89
2023-02-25T17:46:15.241Z,17.90
2023-02-25T17:48:45.695Z,17.87
2023-02-25T17:51:13.668Z,17.86
2023-02-25T17:53:51.239Z,17.84
2023-02-25T17:56:25.485Z,17.82
2023-02-25T17:58:57.862Z,17.81
2023-02-25T18:01:28.775Z,17.79
2023-02-25T18:03:55.779Z,17.78
2023-02-25T18:06:44.637Z,17.75
2023-02-25T18:09:35.922Z,17.73
2023-02-25T18:12:05.815Z,17.75
2023-02-25T18:14:37.067Z,17.74
2023-02-25T18:17:13.474Z,17.73
2023-02-25T18:19:44.406Z,17.73
2023-02-25T18:22:36.946Z,17.71
2023-02-25T18:25:08.144Z,17.73
2023-02-25T18:27:37.639Z,17.73
2023-02-25T18:30:19.345Z,17.71
2023-02-25T18:32:46.975Z,17.71
2023-02-25T18:35:14.220Z,17.70
2023-02-25T18:37:43.336Z,17.70
2023-02-25T18:40:40.747Z,17.65
2023-02-25T18:43:07.647Z,17.68
2023-02-25T18:45:34.661Z,17.67
2023-02-25T18:48:01.754Z,17.65
2023-02-25T18:50:33.621Z,17.64
2023-02-25T18:53:00.879Z,17.63
2023-02-25T18:55:32.866Z,17.61
2023-02-25T18:58:01.111Z,17.61
2023-02-25T19:00:27.785Z,17.58
2023-02-25T19:02:58.008Z,17.58
2023-02-25T19:05:25.608Z,17.57
2023-02-25T19:07:52.627Z,17.55
2023-02-25T19:10:25.280Z,17.55
2023-02-25T19:12:59.029Z,17.54
2023-02-25T19:15:25.489Z,17.51
2023-02-25T19:17:52.033Z,17.54
2023-02-25T19:20:20.530Z,17.52
2023-02-25T19:22:49.464Z,17.51
2023-02-25T19:25:29.010Z,17.51
2023-02-25T19:27:56.900Z,17.49
2023-02-25T19:30:25.977Z,17.48
2023-02-25T19:32:53.001Z,17.47
2023-02-25T19:35:19.740Z,17.46
2023-02-25T19:37:46.313Z,17.46
2023-02-25T19:40:15.400Z,17.44
2023-02-25T19:42:43.710Z,17.44
2023-02-25T19:45:16.762Z,17.42
2023-02-25T19:47:43.678Z,17.42
2023-02-25T19:50:11.627Z,17.41
2023-02-25T19:52:38.961Z,17.40
2023-02-25T19:55:06.555Z,17.39
2023-02-25T19:57:33.592Z,17.38
2023-02-25T20:00:00.355Z,17.38
2023-02-25T20:02:26.870Z,17.37
2023-02-25T20:04:53.402Z,17.36
2023-02-25T20:07:19.942Z,17.35
2023-02-25T20:09:46.588Z,17.34
2023-02-25T20:12:14.061Z,17.33
2023-02-25T20:14:40.626Z,17.34
2023-02-25T20:17:07.279Z,17.38
2023-02-25T20:19:34.485Z,17.47
2023-02-25T20:22:02.874Z,17.58
2023-02-25T20:24:30.518Z,17.72
2023-02-25T20:26:57.092Z,17.85
2023-02-25T20:29:24.032Z,17.98
2023-02-25T20:31:50.724Z,18.11
2023-02-25T20:34:21.307Z,18.22
2023-02-25T20:36:56.775Z,18.37
2023-02-25T20:39:38.471Z,18.49
2023-02-25T20:42:05.761Z,18.59
2023-02-25T20:44:32.773Z,18.71
2023-02-25T20:46:59.548Z,18.79
2023-02-25T20:49:26.338Z,18.89
2023-02-25T20:51:53.278Z,18.98
2023-02-25T20:54:20.250Z,19.04
2023-02-25T20:56:48.366Z,19.11
2023-02-25T20:59:16.036Z,19.19
2023-02-25T21:01:42.847Z,19.27
2023-02-25T21:04:10.300Z,19.34
2023-02-25T21:06:38.204Z,19.39
2023-02-25T21:09:06.712Z,19.45
2023-02-25T21:11:33.740Z,19.51
2023-02-25T21:14:00.281Z,19.56
2023-02-25T21:16:27.165Z,19.62
2023-02-25T21:18:54.110Z,19.66
2023-02-25T21:21:21.754Z,19.71
2023-02-25T21:23:49.303Z,19.76
2023-02-25T21:26:16.156Z,19.81
2023-02-25T21:28:42.907Z,19.83
2023-02-25T21:31:12.349Z,19.82
2023-02-25T21:33:40.455Z,19.76
2023-02-25T21:36:09.043Z,19.72
2023-02-25T21:38:36.871Z,19.69
2023-02-25T21:41:14.286Z,19.60
2023-02-25T21:43:41.967Z,19.52
2023-02-25T21:46:11.765Z,19.40
2023-02-25T21:48:39.753Z,19.24
2023-02-25T21:51:07.720Z,19.13
2023-02-25T21:53:34.243Z,19.01
2023-02-25T21:56:17.359Z,18.83
2023-02-25T21:58:44.674Z,18.74
2023-02-25T22:01:23.203Z,18.58
2023-02-25T22:03:49.873Z,18.50
2023-02-25T22:06:17.035Z,18.40
2023-02-25T22:08:45.634Z,18.29
2023-02-25T22:11:17.823Z,18.18
2023-02-25T22:13:45.052Z,18.11
2023-02-25T22:16:14.911Z,18.01
2023-02-25T22:18:42.224Z,17.94
2023-02-25T22:21:15.115Z,17.86
2023-02-25T22:23:43.516Z,17.80
2023-02-25T22:26:15.798Z,17.72
2023-02-25T22:28:43.402Z,17.66
2023-02-25T22:31:11.986Z,17.59
2023-02-25T22:33:39.038Z,17.54
2023-02-25T22:36:07.296Z,17.47
2023-02-25T22:38:37.473Z,17.41
2023-02-25T22:41:05.526Z,17.37
2023-02-25T22:43:33.456Z,17.32
2023-02-25T22:46:09.078Z,17.24
2023-02-25T22:48:36.946Z,17.21
2023-02-25T22:51:03.692Z,17.15
2023-02-25T22:53:30.528Z,17.11
2023-02-25T22:56:09.118Z,17.06
2023-02-25T22:58:38.694Z,17.03
2023-02-25T23:01:05.528Z,17.00
2023-02-25T23:03:32.039Z,16.95
2023-02-25T23:05:58.512Z,16.92
2023-02-25T23:08:25.120Z,16.89
2023-02-25T23:10:51.812Z,16.84
2023-02-25T23:13:20.030Z,16.83
2023-02-25T23:15:47.867Z,16.78
2023-02-25T23:18:15.763Z,16.74
2023-02-25T23:20:42.923Z,16.71
2023-02-25T23:23:09.640Z,16.69
2023-02-25T23:25:39.867Z,16.66
2023-02-25T23:28:08.769Z,16.63
2023-02-25T23:30:39.359Z,16.60
2023-02-25T23:33:06.328Z,16.57
2023-02-25T23:35:34.024Z,16.54
2023-02-25T23:38:00.842Z,16.52
2023-02-25T23:40:28.883Z,16.50
2023-02-25T23:42:56.280Z,16.47
2023-02-25T23:45:22.963Z,16.44
2023-02-25T23:47:49.899Z,16.42
2023-02-25T23:50:17.674Z,16.40
2023-02-25T23:52:46.522Z,16.38
2023-02-25T23:55:14.501Z,16.37
2023-02-25T23:57:41.050Z,16.34
